Etusivu
METAR-TAF:

METAR-TAF

Lentoasemat :

Manhattan, Kansas, Yhdysvallat

Leveyspiiri: 39-08-07N, Pituuspiiri: 096-40-40W, korkeus merenpinnasta: 321 m

Tämänhetkinen sää

Tämä raportti tehtiin 46 minuuttia sitten, kello 19.52 UTC
Tuuli 8 kn pohjoisesta puuskistuen 19 kn:hen
Lämpötila 4°C
Kosteus 30%
Ilmanpaine 1028 hPa
Näkyvyys: 16.1 km
selkeää

METAR: KMHK 261952Z 01008G19KT 10SM CLR 04/M12 A3036 RMK AO2 SLP288 T00391122

Aika: 14:38 (20:38 UTC)

Sääennuste

Tämä raportti tehtiin 3 tuntia ja 7 minuuttia sitten, kello 17.31 UTC
Ennuste voimassa 26. päivästä klo 18 UTC - 27. päivään klo 18 UTC
Tuuli 11 kn pohjoisesta
Näkyvyys: 10 km
selkeää
From 27. päivästä klo 0000 UTC
Tuuli 4 kn lännestä
Näkyvyys: 10 km
selkeää
From 27. päivästä klo 1300 UTC
Tuuli 9 kn lännestä/lounaasta
Näkyvyys: 10 km
Muutamia pilviä 9000 ft:n korkeudessa

TAF: KMHK 261731Z 2618/2718 35011KT P6SM SKC FM270000 26004KT P6SM SKC FM271300 24009KT P6SM FEW090

Säähavainnot ja -ennusteet yli 4000 lentoasemalta (METAR- ja TAF-raportit).

Käytössä olevat sääasemat on merkitty karttaan keltaisilla ja punaisilla pisteillä.

Aseta hiiri pisteen päälle nähdäksesi sääaseman nimen.

Klikkaa sitten nähdäksesi säähavainnot ja -ennusteet.

Kartan vaihtaminen: klikkaa mustalla rastilla varustettuja vihreitä pisteitä, niin voit zoomata sisään; viivalla varustettua vihreää pistettä, niin voit zoomata ulos tai vihreitä nuolia, niin pääset viereisille kartoille.


METAR-TAF: